createdAt,value
2024-02-28T00:01:29.832Z,101569.41
2024-02-28T00:06:32.868Z,101567.59
2024-02-28T00:11:37.850Z,101557.59
2024-02-28T00:16:43.864Z,101552.09
2024-02-28T00:21:46.934Z,101550.88
2024-02-28T00:26:49.935Z,101560.75
2024-02-28T00:31:54.345Z,101555.47
2024-02-28T00:36:57.447Z,101560.50
2024-02-28T00:42:00.352Z,101567.34
2024-02-28T00:47:04.720Z,101554.88
2024-02-28T00:52:08.082Z,101550.22
2024-02-28T00:57:11.101Z,101555.00
2024-02-28T01:02:15.435Z,101543.78
2024-02-28T01:07:18.343Z,101545.66
2024-02-28T01:12:21.521Z,101549.22
2024-02-28T01:17:28.204Z,101544.91
2024-02-28T01:22:31.257Z,101533.38
2024-02-28T01:27:34.463Z,101533.97
2024-02-28T01:32:39.388Z,101536.22
2024-02-28T01:37:42.329Z,101522.63
2024-02-28T01:42:45.400Z,101530.22
2024-02-28T01:47:50.135Z,101526.81
2024-02-28T01:52:55.698Z,101526.50
2024-02-28T01:57:58.770Z,101516.38
2024-02-28T02:03:06.403Z,101521.19
2024-02-28T02:08:11.948Z,101528.53
2024-02-28T02:13:14.917Z,101540.75
2024-02-28T02:18:19.378Z,101546.72
2024-02-28T02:23:23.807Z,101556.69
2024-02-28T02:28:26.748Z,101541.34
2024-02-28T02:33:29.591Z,101547.41
2024-02-28T02:38:36.376Z,101551.59
2024-02-28T02:43:39.331Z,101555.53
2024-02-28T02:48:42.352Z,101553.56
2024-02-28T02:53:46.674Z,101555.78
2024-02-28T02:58:49.776Z,101549.81
2024-02-28T03:03:53.857Z,101563.72
2024-02-28T03:08:58.246Z,101570.19
2024-02-28T03:14:01.135Z,101570.91
2024-02-28T03:19:04.952Z,101561.97
2024-02-28T03:24:09.533Z,101544.78
2024-02-28T03:29:14.585Z,101543.47
2024-02-28T03:34:17.495Z,101540.50
2024-02-28T03:39:24.453Z,101541.19
2024-02-28T03:44:27.390Z,101536.34
2024-02-28T03:49:30.299Z,101540.75
2024-02-28T03:54:34.769Z,101532.69
2024-02-28T03:59:39.807Z,101539.03
2024-02-28T04:04:45.528Z,101539.00
2024-02-28T04:09:50.133Z,101535.44
2024-02-28T04:14:55.257Z,101545.75
2024-02-28T04:19:59.097Z,101533.81
2024-02-28T04:25:03.730Z,101530.97
2024-02-28T04:30:07.967Z,101535.63
2024-02-28T04:35:10.974Z,101533.81
2024-02-28T04:40:16.596Z,101542.81
2024-02-28T04:45:19.768Z,101537.97
2024-02-28T04:50:22.746Z,101543.28
2024-02-28T04:55:27.049Z,101544.44
2024-02-28T05:00:29.998Z,101556.94
2024-02-28T05:05:32.927Z,101560.13
2024-02-28T05:10:37.193Z,101559.16
2024-02-28T05:15:40.346Z,101561.78
2024-02-28T05:20:43.224Z,101566.06
2024-02-28T05:25:49.093Z,101555.13
2024-02-28T05:30:52.198Z,101557.06
2024-02-28T05:35:55.292Z,101557.13
2024-02-28T05:41:00.732Z,101563.75
2024-02-28T05:46:03.818Z,101567.25
2024-02-28T05:51:07.205Z,101578.03
2024-02-28T05:56:15.650Z,101584.03
2024-02-28T06:01:19.867Z,101582.84
2024-02-28T06:06:23.639Z,101579.63
2024-02-28T06:11:27.947Z,101579.06
2024-02-28T06:16:30.857Z,101585.34
2024-02-28T06:21:33.819Z,101583.16
2024-02-28T06:26:40.957Z,101579.00
2024-02-28T06:31:45.361Z,101596.53
2024-02-28T06:36:48.380Z,101605.16
2024-02-28T06:41:58.865Z,101615.97
2024-02-28T06:47:03.052Z,101608.84
2024-02-28T06:52:06.851Z,101627.91
2024-02-28T06:57:12.518Z,101622.88
2024-02-28T07:02:15.496Z,101621.75
2024-02-28T07:07:18.388Z,101628.91
2024-02-28T07:12:22.832Z,101619.66
2024-02-28T07:17:27.711Z,101626.97
2024-02-28T07:22:31.775Z,101629.31
2024-02-28T07:27:36.016Z,101624.50
2024-02-28T07:32:38.959Z,101628.25
2024-02-28T07:37:41.869Z,101635.81
2024-02-28T07:42:46.362Z,101639.19
2024-02-28T07:47:50.658Z,101652.38
2024-02-28T07:52:56.103Z,101647.88
2024-02-28T07:58:00.625Z,101642.72
2024-02-28T08:03:03.572Z,101658.84
2024-02-28T08:08:07.077Z,101658.91
2024-02-28T08:13:12.626Z,101666.34
2024-02-28T08:18:16.296Z,101663.97
2024-02-28T08:23:20.423Z,101668.75
2024-02-28T08:28:24.787Z,101659.94
2024-02-28T08:33:28.042Z,101662.72
2024-02-28T08:38:31.313Z,101659.97
2024-02-28T08:43:35.881Z,101668.59
2024-02-28T08:48:39.229Z,101669.03
2024-02-28T08:53:42.275Z,101672.22
2024-02-28T08:58:46.974Z,101674.72
2024-02-28T09:03:49.924Z,101669.63
2024-02-28T09:08:52.903Z,101680.19
2024-02-28T09:13:57.133Z,101682.03
2024-02-28T09:19:00.060Z,101682.84
2024-02-28T09:24:03.231Z,101673.75
2024-02-28T09:29:07.462Z,101680.97
2024-02-28T09:34:11.226Z,101685.16
2024-02-28T09:39:15.984Z,101676.72
2024-02-28T09:44:22.343Z,101677.06
2024-02-28T09:49:28.870Z,101686.31
2024-02-28T09:54:31.953Z,101684.94
2024-02-28T09:59:47.037Z,101678.78
2024-02-28T10:04:58.655Z,101685.47
2024-02-28T10:10:01.705Z,101677.97
2024-02-28T10:15:07.285Z,101676.16
2024-02-28T10:20:11.468Z,101674.47
2024-02-28T10:25:14.404Z,101688.88
2024-02-28T10:30:18.985Z,101687.81
2024-02-28T10:35:26.289Z,101686.22
2024-02-28T10:40:30.238Z,101692.19
2024-02-28T10:50:46.664Z,101683.09
2024-02-28T10:55:50.872Z,101700.50
2024-02-28T11:00:55.485Z,101700.84
2024-02-28T11:05:58.565Z,101694.72
2024-02-28T11:11:05.329Z,101707.53
2024-02-28T11:16:14.065Z,101708.22
2024-02-28T11:21:17.678Z,101702.22
2024-02-28T11:26:21.677Z,101697.97
2024-02-28T11:31:25.993Z,101712.78
2024-02-28T11:36:29.613Z,101707.78
2024-02-28T11:41:33.032Z,101708.03
2024-02-28T11:46:37.586Z,101718.19
2024-02-28T11:51:43.097Z,101713.59
2024-02-28T11:56:46.871Z,101709.03
2024-02-28T12:01:52.796Z,101707.94
2024-02-28T12:06:56.018Z,101708.56
2024-02-28T12:12:02.634Z,101720.06
2024-02-28T12:17:07.060Z,101711.84
2024-02-28T12:22:10.125Z,101712.69
2024-02-28T12:27:13.163Z,101703.59
2024-02-28T12:32:19.015Z,101691.06
2024-02-28T12:37:21.981Z,101691.41
2024-02-28T12:42:24.919Z,101689.06
2024-02-28T12:47:31.718Z,101688.31
2024-02-28T12:52:34.708Z,101682.38
2024-02-28T12:57:40.400Z,101670.53
2024-02-28T13:02:45.021Z,101663.84
2024-02-28T13:07:47.867Z,101669.66
2024-02-28T13:12:54.388Z,101664.00
2024-02-28T13:18:09.748Z,101663.91
2024-02-28T13:23:27.548Z,101661.31
2024-02-28T13:28:36.585Z,101657.31
2024-02-28T13:33:42.801Z,101652.75
2024-02-28T13:38:46.068Z,101648.69
2024-02-28T13:44:53.766Z,101647.44
2024-02-28T13:50:17.187Z,101647.75
2024-02-28T13:55:20.960Z,101648.59
2024-02-28T14:00:24.970Z,101642.50
2024-02-28T14:05:29.535Z,101640.22
2024-02-28T14:10:32.727Z,101640.38
2024-02-28T14:15:37.601Z,101631.91
2024-02-28T14:20:43.517Z,101639.56
2024-02-28T14:25:46.834Z,101639.56
2024-02-28T14:30:50.937Z,101641.56
2024-02-28T14:35:55.556Z,101637.63
2024-02-28T14:40:58.568Z,101644.16
2024-02-28T14:46:03.001Z,101649.66
2024-02-28T14:51:07.796Z,101654.25
2024-02-28T14:56:10.933Z,101647.00
2024-02-28T15:01:14.114Z,101644.47
2024-02-28T15:06:19.209Z,101640.03
2024-02-28T15:11:22.396Z,101634.06
2024-02-28T15:16:25.804Z,101629.78
2024-02-28T15:21:30.207Z,101634.59
2024-02-28T15:26:42.219Z,101631.63
2024-02-28T15:31:49.292Z,101634.63
2024-02-28T15:36:53.555Z,101638.94
2024-02-28T15:41:56.588Z,101637.94
2024-02-28T15:46:59.455Z,101632.59
2024-02-28T15:52:04.412Z,101632.84
2024-02-28T15:57:10.875Z,101638.25
2024-02-28T16:02:13.821Z,101634.56
2024-02-28T16:07:18.276Z,101633.22
2024-02-28T16:12:21.677Z,101632.97
2024-02-28T16:17:26.912Z,101645.13
2024-02-28T16:22:31.552Z,101640.56
2024-02-28T16:27:35.879Z,101642.81
2024-02-28T16:32:39.521Z,101651.97
2024-02-28T16:37:46.749Z,101660.34
2024-02-28T16:42:52.605Z,101664.28
2024-02-28T16:47:55.576Z,101650.53
2024-02-28T16:52:59.962Z,101652.09
2024-02-28T16:58:05.003Z,101645.69
2024-02-28T17:03:08.161Z,101648.16
2024-02-28T17:08:12.540Z,101643.47
2024-02-28T17:13:15.574Z,101645.53
2024-02-28T17:18:18.590Z,101647.75
2024-02-28T17:23:25.379Z,101654.97
2024-02-28T17:28:28.950Z,101654.03
2024-02-28T17:33:32.029Z,101656.09
2024-02-28T17:38:36.995Z,101654.69
2024-02-28T17:43:39.996Z,101657.91
2024-02-28T17:48:44.633Z,101644.97
2024-02-28T17:53:48.968Z,101650.03
2024-02-28T17:58:51.848Z,101649.28
2024-02-28T18:03:54.760Z,101632.88
2024-02-28T18:08:59.477Z,101639.69
2024-02-28T18:14:02.371Z,101648.66
2024-02-28T18:19:05.778Z,101642.88
2024-02-28T18:24:10.331Z,101631.69
2024-02-28T18:29:13.425Z,101633.97
2024-02-28T18:34:16.595Z,101637.53
2024-02-28T18:39:20.943Z,101631.69
2024-02-28T18:44:23.958Z,101628.41
2024-02-28T18:49:27.211Z,101626.88
2024-02-28T18:54:31.842Z,101630.75
2024-02-28T18:59:36.031Z,101627.84
2024-02-28T19:04:40.212Z,101639.22
2024-02-28T19:09:44.946Z,101627.38
2024-02-28T19:14:48.247Z,101628.34
2024-02-28T19:20:08.275Z,101627.38
2024-02-28T19:25:12.747Z,101627.63
2024-02-28T19:30:15.827Z,101625.97
2024-02-28T19:35:18.763Z,101626.16
2024-02-28T19:40:23.082Z,101620.91
2024-02-28T19:45:26.135Z,101622.47
2024-02-28T19:50:29.165Z,101624.63
2024-02-28T19:55:33.447Z,101624.53
2024-02-28T20:00:37.036Z,101616.34
2024-02-28T20:05:40.977Z,101608.75
2024-02-28T20:10:45.678Z,101607.41
2024-02-28T20:15:48.669Z,101606.44
2024-02-28T20:20:51.853Z,101610.38
2024-02-28T20:25:56.380Z,101611.59
2024-02-28T20:30:59.410Z,101620.03
2024-02-28T20:36:04.737Z,101613.22
2024-02-28T20:41:09.056Z,101609.66
2024-02-28T20:46:12.015Z,101605.25
2024-02-28T20:51:15.017Z,101601.97
2024-02-28T20:56:19.948Z,101603.38
2024-02-28T21:01:25.327Z,101604.28
2024-02-28T21:06:30.314Z,101592.38
2024-02-28T21:11:37.356Z,101588.22
2024-02-28T21:16:40.327Z,101587.09
2024-02-28T21:21:43.502Z,101591.94
2024-02-28T21:26:49.556Z,101577.06
2024-02-28T21:31:52.562Z,101566.75
2024-02-28T21:36:55.580Z,101560.91
2024-02-28T21:42:00.094Z,101560.16
2024-02-28T21:47:03.268Z,101565.16
2024-02-28T21:52:06.322Z,101544.25
2024-02-28T21:57:12.130Z,101546.41
2024-02-28T22:02:15.091Z,101544.72
2024-02-28T22:07:18.062Z,101554.75
2024-02-28T22:12:22.387Z,101547.66
2024-02-28T22:17:25.268Z,101529.56
2024-02-28T22:22:29.957Z,101519.75
2024-02-28T22:27:34.248Z,101529.56
2024-02-28T22:32:37.166Z,101525.78
2024-02-28T22:37:40.079Z,101523.22
2024-02-28T22:42:44.684Z,101522.81
2024-02-28T22:47:47.598Z,101510.41
2024-02-28T22:52:50.510Z,101505.34
2024-02-28T22:57:54.897Z,101505.56
2024-02-28T23:03:00.042Z,101501.78
2024-02-28T23:08:03.721Z,101500.25
2024-02-28T23:13:08.538Z,101481.78
2024-02-28T23:18:11.992Z,101474.63
2024-02-28T23:23:14.991Z,101463.81
2024-02-28T23:28:19.209Z,101455.16
2024-02-28T23:33:22.343Z,101444.78
2024-02-28T23:38:25.187Z,101439.41
2024-02-28T23:43:29.406Z,101430.94
2024-02-28T23:48:32.308Z,101437.78
2024-02-28T23:53:35.235Z,101430.66
2024-02-28T23:58:39.548Z,101425.63
